createdAt,value
2019-01-29T00:02:13.195Z,1.70
2019-01-29T00:04:43.569Z,1.70
2019-01-29T00:07:13.950Z,1.80
2019-01-29T00:09:44.604Z,1.60
2019-01-29T00:12:14.966Z,1.70
2019-01-29T00:14:45.377Z,1.90
2019-01-29T00:17:15.793Z,1.90
2019-01-29T00:19:46.174Z,2.10
2019-01-29T00:22:16.625Z,2.10
2019-01-29T00:24:47.156Z,1.90
2019-01-29T00:27:17.509Z,2.00
2019-01-29T00:29:47.890Z,2.00
2019-01-29T00:32:18.248Z,1.90
2019-01-29T00:34:48.614Z,1.90
2019-01-29T00:37:19.015Z,1.90
2019-01-29T00:39:49.812Z,1.90
2019-01-29T00:42:20.389Z,1.70
2019-01-29T00:44:50.770Z,1.60
2019-01-29T00:47:21.153Z,1.50
2019-01-29T00:49:51.538Z,1.50
2019-01-29T00:52:21.873Z,1.60
2019-01-29T00:54:52.269Z,1.70
2019-01-29T00:57:22.695Z,1.70
2019-01-29T00:59:53.053Z,1.70
2019-01-29T01:02:23.421Z,1.70
2019-01-29T01:04:53.778Z,1.50
2019-01-29T01:07:24.144Z,1.50
2019-01-29T01:09:57.209Z,1.50
2019-01-29T01:12:26.573Z,1.50
2019-01-29T01:14:56.933Z,1.50
2019-01-29T01:17:27.320Z,1.50
2019-01-29T01:19:57.685Z,1.50
2019-01-29T01:22:28.078Z,1.50
2019-01-29T01:24:58.432Z,1.50
2019-01-29T01:27:28.793Z,1.50
2019-01-29T01:29:59.190Z,1.50
2019-01-29T01:32:29.542Z,1.50
2019-01-29T01:34:59.934Z,1.40
2019-01-29T01:37:30.297Z,1.40
2019-01-29T01:40:00.672Z,1.40
2019-01-29T01:42:31.078Z,1.40
2019-01-29T01:45:01.489Z,1.50
2019-01-29T01:47:31.861Z,1.50
2019-01-29T01:50:02.221Z,1.50
2019-01-29T01:52:32.613Z,1.50
2019-01-29T01:55:02.976Z,1.60
2019-01-29T01:57:33.335Z,1.60
2019-01-29T02:00:04.182Z,1.60
2019-01-29T02:02:34.631Z,1.50
2019-01-29T02:05:06.165Z,1.50
2019-01-29T02:07:36.565Z,1.40
2019-01-29T02:10:10.392Z,1.60
2019-01-29T02:12:40.775Z,1.60
2019-01-29T02:15:11.870Z,1.60
2019-01-29T02:17:42.218Z,1.70
2019-01-29T02:20:12.875Z,1.70
2019-01-29T02:22:43.270Z,1.70
2019-01-29T02:25:13.813Z,1.50
2019-01-29T02:27:44.297Z,1.50
2019-01-29T02:30:17.091Z,1.60
2019-01-29T02:32:47.454Z,1.60
2019-01-29T02:35:17.835Z,1.70
2019-01-29T02:37:48.231Z,1.70
2019-01-29T02:40:20.969Z,1.80
2019-01-29T02:42:51.362Z,1.80
2019-01-29T02:45:21.981Z,1.80
2019-01-29T02:47:52.347Z,1.80
2019-01-29T02:50:22.949Z,1.70
2019-01-29T02:52:53.344Z,1.80
2019-01-29T02:55:23.943Z,1.80
2019-01-29T02:57:54.580Z,1.80
2019-01-29T03:00:26.547Z,1.60
2019-01-29T03:02:56.905Z,1.40
2019-01-29T03:05:27.363Z,1.40
2019-01-29T03:07:57.701Z,1.40
2019-01-29T03:10:28.374Z,1.40
2019-01-29T03:12:58.726Z,1.30
2019-01-29T03:15:31.738Z,1.20
2019-01-29T03:18:02.118Z,1.30
2019-01-29T03:20:32.553Z,1.50
2019-01-29T03:23:02.962Z,1.50
2019-01-29T03:25:33.320Z,1.50
2019-01-29T03:28:03.702Z,1.60
2019-01-29T03:30:34.094Z,1.60
2019-01-29T03:33:04.463Z,1.60
2019-01-29T03:35:34.851Z,1.60
2019-01-29T03:38:05.229Z,1.60
2019-01-29T03:40:35.593Z,1.60
2019-01-29T03:43:06.096Z,1.70
2019-01-29T03:45:36.460Z,1.70
2019-01-29T03:48:06.874Z,1.70
2019-01-29T03:50:37.239Z,1.70
2019-01-29T03:53:07.613Z,1.70
2019-01-29T03:55:37.978Z,1.60
2019-01-29T03:58:08.333Z,1.40
2019-01-29T04:00:38.718Z,1.40
2019-01-29T04:03:09.120Z,1.30
2019-01-29T04:05:39.555Z,1.20
2019-01-29T04:08:09.909Z,1.20
2019-01-29T04:10:40.266Z,1.20
2019-01-29T04:13:10.718Z,1.10
2019-01-29T04:15:41.072Z,0.90
2019-01-29T04:18:11.407Z,0.80
2019-01-29T04:20:41.759Z,0.70
2019-01-29T04:23:12.113Z,0.70
2019-01-29T04:25:42.471Z,0.70
2019-01-29T04:28:12.813Z,0.70
2019-01-29T04:30:43.161Z,0.70
2019-01-29T04:33:13.501Z,0.80
2019-01-29T04:35:43.852Z,0.90
2019-01-29T04:38:14.211Z,1.00
2019-01-29T04:40:44.561Z,1.00
2019-01-29T04:43:14.899Z,1.10
2019-01-29T04:45:45.257Z,1.00
2019-01-29T04:48:15.928Z,1.00
2019-01-29T04:50:46.273Z,1.00
2019-01-29T04:53:16.621Z,0.90
2019-01-29T04:55:46.970Z,1.00
2019-01-29T04:58:17.320Z,0.90
2019-01-29T05:00:47.750Z,0.90
2019-01-29T05:03:18.104Z,0.70
2019-01-29T05:05:48.625Z,0.80
2019-01-29T05:08:19.063Z,0.80
2019-01-29T05:10:49.421Z,0.90
2019-01-29T05:13:19.793Z,0.90
2019-01-29T05:15:50.141Z,0.90
2019-01-29T05:18:20.541Z,0.90
2019-01-29T05:20:50.912Z,0.90
2019-01-29T05:23:21.261Z,0.80
2019-01-29T05:25:51.636Z,0.60
2019-01-29T05:28:21.972Z,0.70
2019-01-29T05:30:52.310Z,0.80
2019-01-29T05:33:22.664Z,0.80
2019-01-29T05:35:53.045Z,0.90
2019-01-29T05:38:23.401Z,0.90
2019-01-29T05:40:53.758Z,1.00
2019-01-29T05:43:24.121Z,1.00
2019-01-29T05:45:54.549Z,1.10
2019-01-29T05:48:24.910Z,1.10
2019-01-29T05:50:55.268Z,1.20
2019-01-29T05:53:25.929Z,1.20
2019-01-29T05:55:56.275Z,1.20
2019-01-29T05:58:26.618Z,1.10
2019-01-29T06:00:56.965Z,1.00
2019-01-29T06:03:27.321Z,0.90
2019-01-29T06:05:57.679Z,0.90
2019-01-29T06:08:28.038Z,1.00
2019-01-29T06:10:58.417Z,1.20
2019-01-29T06:13:28.769Z,1.30
2019-01-29T06:15:59.134Z,1.20
2019-01-29T06:18:29.496Z,1.20
2019-01-29T06:20:59.866Z,1.20
2019-01-29T06:23:30.213Z,1.20
2019-01-29T06:26:00.553Z,1.20
2019-01-29T06:28:30.927Z,1.10
2019-01-29T06:31:01.303Z,0.90
2019-01-29T06:33:31.657Z,0.80
2019-01-29T06:36:02.011Z,0.70
2019-01-29T06:38:32.429Z,0.60
2019-01-29T06:41:02.818Z,0.60
2019-01-29T06:43:33.170Z,0.60
2019-01-29T06:46:03.537Z,0.40
2019-01-29T06:48:33.886Z,0.50
2019-01-29T06:51:04.255Z,0.60
2019-01-29T06:53:34.597Z,0.60
2019-01-29T06:56:05.057Z,0.60
2019-01-29T06:58:35.407Z,0.70
2019-01-29T07:01:05.969Z,0.60
2019-01-29T07:03:36.314Z,0.60
2019-01-29T07:06:06.686Z,0.70
2019-01-29T07:08:37.039Z,0.60
2019-01-29T07:11:07.390Z,0.70
2019-01-29T07:13:37.733Z,0.60
2019-01-29T07:16:27.018Z,0.70
2019-01-29T07:19:14.987Z,0.70
2019-01-29T07:21:45.345Z,0.70
2019-01-29T07:24:15.690Z,0.70
2019-01-29T07:26:46.052Z,0.70
2019-01-29T07:29:16.410Z,0.90
2019-01-29T07:31:46.797Z,0.90
2019-01-29T07:34:17.169Z,0.90
2019-01-29T07:36:47.522Z,0.80
2019-01-29T07:39:17.917Z,0.80
2019-01-29T07:41:48.273Z,0.60
2019-01-29T07:44:18.614Z,0.70
2019-01-29T07:46:48.972Z,0.80
2019-01-29T07:49:19.338Z,0.80
2019-01-29T07:51:49.667Z,0.90
2019-01-29T07:54:20.025Z,0.70
2019-01-29T07:56:50.362Z,0.60
2019-01-29T07:59:32.602Z,0.60
2019-01-29T08:01:52.789Z,0.60
2019-01-29T08:04:23.129Z,0.70
2019-01-29T08:06:53.489Z,0.80
2019-01-29T08:09:23.858Z,0.90
2019-01-29T08:11:54.218Z,0.80
2019-01-29T08:14:24.569Z,1.10
2019-01-29T08:16:54.914Z,1.30
2019-01-29T08:19:25.293Z,1.40
2019-01-29T08:21:55.712Z,1.40
2019-01-29T08:24:27.766Z,1.50
2019-01-29T08:26:58.286Z,1.50
2019-01-29T08:29:30.654Z,1.50
2019-01-29T08:32:00.709Z,1.30
2019-01-29T08:34:31.077Z,1.40
2019-01-29T08:37:01.421Z,1.60
2019-01-29T08:39:31.769Z,1.70
2019-01-29T08:42:02.230Z,1.80
2019-01-29T08:44:32.650Z,1.70
2019-01-29T08:47:03.013Z,1.30
2019-01-29T08:49:33.349Z,1.20
2019-01-29T08:52:03.709Z,1.10
2019-01-29T08:54:34.064Z,1.00
2019-01-29T08:57:04.438Z,1.00
2019-01-29T08:59:34.802Z,0.80
2019-01-29T09:02:05.162Z,0.70
2019-01-29T09:04:35.523Z,0.80
2019-01-29T09:07:05.926Z,1.00
2019-01-29T09:09:36.274Z,1.00
2019-01-29T09:12:06.744Z,1.10
2019-01-29T09:14:37.078Z,1.10
2019-01-29T09:17:07.489Z,1.20
2019-01-29T09:19:37.867Z,1.20
2019-01-29T09:22:08.219Z,1.30
2019-01-29T09:24:38.569Z,1.30
2019-01-29T09:27:08.941Z,1.20
2019-01-29T09:29:39.290Z,1.30
2019-01-29T09:32:09.644Z,1.40
2019-01-29T09:34:40.001Z,1.50
2019-01-29T09:37:10.360Z,1.50
2019-01-29T09:39:40.745Z,1.50
2019-01-29T09:42:11.127Z,1.60
2019-01-29T09:44:41.485Z,1.60
2019-01-29T09:47:11.857Z,1.90
2019-01-29T09:49:42.224Z,1.90
2019-01-29T09:52:12.573Z,1.80
2019-01-29T09:54:42.919Z,2.00
2019-01-29T09:57:13.276Z,2.20
2019-01-29T09:59:43.640Z,2.10
2019-01-29T10:02:14.000Z,2.10
2019-01-29T10:04:44.345Z,2.50
2019-01-29T10:07:14.692Z,2.50
2019-01-29T10:09:45.083Z,2.50
2019-01-29T10:12:15.517Z,2.40
2019-01-29T10:14:45.999Z,2.40
2019-01-29T10:17:18.296Z,2.50
2019-01-29T10:19:48.722Z,2.60
2019-01-29T10:22:19.073Z,2.80
2019-01-29T10:24:49.526Z,2.70
2019-01-29T10:27:19.877Z,2.70
2019-01-29T10:29:50.240Z,2.90
2019-01-29T10:32:20.586Z,3.00
2019-01-29T10:34:50.985Z,3.00
2019-01-29T10:37:21.346Z,3.10
2019-01-29T10:39:51.722Z,3.30
2019-01-29T10:42:22.122Z,3.20
2019-01-29T10:44:52.490Z,3.00
2019-01-29T10:47:22.849Z,2.70
2019-01-29T10:49:53.325Z,2.90
2019-01-29T10:52:23.944Z,2.90
2019-01-29T10:54:54.379Z,2.90
2019-01-29T10:57:24.856Z,3.00
2019-01-29T10:59:55.222Z,2.80
2019-01-29T11:02:25.586Z,2.50
2019-01-29T11:04:55.934Z,2.60
2019-01-29T11:07:26.321Z,2.80
2019-01-29T11:09:56.681Z,3.20
2019-01-29T11:12:27.155Z,3.70
2019-01-29T11:14:57.511Z,4.40
2019-01-29T11:17:27.890Z,4.50
2019-01-29T11:19:58.228Z,5.20
2019-01-29T11:22:28.675Z,4.80
2019-01-29T11:24:59.085Z,3.90
2019-01-29T11:27:31.010Z,3.20
2019-01-29T11:30:04.511Z,3.00
2019-01-29T11:32:34.883Z,2.90
2019-01-29T11:35:06.416Z,2.90
2019-01-29T11:37:36.884Z,3.10
2019-01-29T11:40:10.134Z,2.90
2019-01-29T11:42:40.517Z,2.80
2019-01-29T11:45:15.282Z,2.50
2019-01-29T11:47:45.674Z,2.50
2019-01-29T11:50:16.127Z,2.30
2019-01-29T11:52:46.488Z,2.40
2019-01-29T11:55:16.984Z,2.50
2019-01-29T11:57:47.405Z,2.60
2019-01-29T12:00:24.978Z,2.60
2019-01-29T12:02:55.343Z,2.60
2019-01-29T12:05:25.863Z,2.90
2019-01-29T12:07:56.204Z,3.30
2019-01-29T12:10:26.686Z,3.50
2019-01-29T12:12:57.101Z,3.60
2019-01-29T12:15:27.473Z,3.60
2019-01-29T12:17:57.854Z,3.80
2019-01-29T12:20:28.253Z,4.00
2019-01-29T12:22:58.817Z,3.90
2019-01-29T12:25:29.205Z,3.70
2019-01-29T12:27:59.575Z,3.50
2019-01-29T12:30:30.172Z,3.60
2019-01-29T12:33:01.390Z,3.90
2019-01-29T12:35:31.779Z,3.70
2019-01-29T12:38:02.126Z,3.60
2019-01-29T12:40:32.510Z,3.60
2019-01-29T12:43:02.912Z,3.70
2019-01-29T12:45:33.318Z,3.70
2019-01-29T12:48:04.548Z,3.80
2019-01-29T12:50:34.945Z,3.90
2019-01-29T12:53:07.993Z,4.10
2019-01-29T12:55:38.450Z,4.40
2019-01-29T12:58:10.362Z,4.40
2019-01-29T13:00:46.665Z,4.50
2019-01-29T13:03:17.026Z,4.40
2019-01-29T13:05:47.375Z,4.40
2019-01-29T13:08:17.962Z,4.50
2019-01-29T13:10:48.448Z,4.30
2019-01-29T13:13:18.835Z,4.40
2019-01-29T13:15:49.313Z,4.80
2019-01-29T13:18:19.798Z,4.60
2019-01-29T13:20:50.173Z,4.30
2019-01-29T13:23:20.549Z,4.30
2019-01-29T13:25:50.917Z,4.50
2019-01-29T13:28:21.270Z,4.90
2019-01-29T13:30:51.606Z,5.00
2019-01-29T13:33:22.046Z,5.30
2019-01-29T13:35:52.502Z,5.00
2019-01-29T13:38:22.972Z,4.90
2019-01-29T13:40:53.346Z,5.20
2019-01-29T13:43:23.782Z,5.10
2019-01-29T13:45:54.146Z,5.60
2019-01-29T13:48:24.543Z,5.90
2019-01-29T13:50:57.701Z,6.00
2019-01-29T13:53:28.070Z,6.10
2019-01-29T13:55:58.786Z,6.80
2019-01-29T13:58:29.168Z,7.00
2019-01-29T14:00:59.548Z,7.00
2019-01-29T14:03:30.034Z,6.90
2019-01-29T14:06:00.414Z,6.60
2019-01-29T14:08:30.770Z,6.40
2019-01-29T14:11:01.181Z,6.10
2019-01-29T14:13:31.640Z,6.10
2019-01-29T14:16:04.423Z,6.00
2019-01-29T14:18:34.870Z,5.60
2019-01-29T14:21:05.494Z,5.10
2019-01-29T14:23:35.826Z,5.10
2019-01-29T14:26:06.406Z,6.30
2019-01-29T14:28:36.866Z,7.80
2019-01-29T14:31:07.305Z,8.70
2019-01-29T14:33:37.692Z,9.60
2019-01-29T14:36:16.393Z,10.10
2019-01-29T14:39:19.573Z,10.20
2019-01-29T14:41:50.070Z,10.60
2019-01-29T14:44:23.298Z,11.00
2019-01-29T14:46:53.761Z,10.60
2019-01-29T14:49:24.155Z,10.00
2019-01-29T14:51:54.658Z,9.10
2019-01-29T14:54:25.135Z,8.60
2019-01-29T14:56:57.168Z,8.40
2019-01-29T14:59:27.772Z,8.30
2019-01-29T15:01:58.235Z,7.80
2019-01-29T15:04:28.620Z,7.80
2019-01-29T15:06:58.981Z,7.40
2019-01-29T15:09:29.430Z,7.40
2019-01-29T15:11:59.804Z,7.40
2019-01-29T15:14:30.289Z,7.00
2019-01-29T15:17:17.853Z,6.50
2019-01-29T15:19:48.442Z,6.20
2019-01-29T15:22:18.889Z,6.00
2019-01-29T15:24:49.285Z,6.00
2019-01-29T15:27:19.667Z,5.40
2019-01-29T15:29:50.019Z,5.50
2019-01-29T15:32:20.422Z,5.50
2019-01-29T15:34:50.825Z,5.70
2019-01-29T15:37:21.189Z,5.70
2019-01-29T15:39:51.606Z,5.50
2019-01-29T15:42:22.009Z,5.40
2019-01-29T15:44:52.497Z,5.30
2019-01-29T15:47:22.866Z,5.20
2019-01-29T15:49:53.255Z,4.90
2019-01-29T15:52:23.674Z,4.90
2019-01-29T15:54:54.053Z,4.90
2019-01-29T15:57:24.413Z,4.70
2019-01-29T15:59:54.838Z,4.70
2019-01-29T16:02:25.192Z,4.60
2019-01-29T16:04:55.550Z,4.40
2019-01-29T16:07:26.085Z,4.20
2019-01-29T16:09:56.463Z,4.20
2019-01-29T16:12:26.809Z,4.10
2019-01-29T16:14:57.175Z,4.10
2019-01-29T16:17:27.545Z,4.00
2019-01-29T16:19:57.925Z,3.80
2019-01-29T16:22:28.366Z,3.70
2019-01-29T16:24:58.750Z,3.60
2019-01-29T16:27:29.143Z,3.40
2019-01-29T16:29:59.517Z,3.40
2019-01-29T16:32:29.987Z,3.30
2019-01-29T16:35:00.365Z,3.20
2019-01-29T16:37:30.746Z,3.20
2019-01-29T16:40:01.182Z,3.10
2019-01-29T16:42:31.554Z,3.10
2019-01-29T16:45:01.956Z,3.10
2019-01-29T16:47:32.436Z,3.10
2019-01-29T16:50:02.821Z,3.00
2019-01-29T16:52:33.182Z,2.90
2019-01-29T16:55:03.574Z,2.90
2019-01-29T16:57:33.959Z,2.90
2019-01-29T17:00:05.350Z,2.80
2019-01-29T17:02:35.750Z,2.80
2019-01-29T17:05:07.548Z,2.80
2019-01-29T17:07:37.926Z,2.90
2019-01-29T17:10:09.864Z,2.80
2019-01-29T17:12:40.245Z,2.80
2019-01-29T17:15:13.445Z,2.80
2019-01-29T17:17:43.818Z,2.70
2019-01-29T17:20:17.416Z,2.60
2019-01-29T17:22:47.818Z,2.70
2019-01-29T17:25:18.169Z,2.70
2019-01-29T17:27:48.533Z,2.60
2019-01-29T17:30:28.233Z,2.50
2019-01-29T17:32:58.622Z,2.40
2019-01-29T17:35:29.162Z,2.40
2019-01-29T17:37:59.521Z,2.30
2019-01-29T17:40:29.903Z,2.30
2019-01-29T17:43:00.654Z,2.30
2019-01-29T17:45:39.685Z,2.30
2019-01-29T17:48:10.069Z,2.30
2019-01-29T17:50:42.293Z,2.20
2019-01-29T17:53:12.641Z,2.20
2019-01-29T17:55:43.699Z,2.30
2019-01-29T17:58:14.740Z,2.30
2019-01-29T18:00:48.601Z,2.30
2019-01-29T18:03:18.967Z,2.30
2019-01-29T18:05:49.500Z,2.20
2019-01-29T18:08:19.866Z,2.20
2019-01-29T18:10:50.225Z,2.10
2019-01-29T18:13:20.628Z,2.10
2019-01-29T18:15:51.006Z,2.10
2019-01-29T18:18:21.418Z,2.20
2019-01-29T18:20:51.857Z,2.20
2019-01-29T18:23:22.242Z,2.20
2019-01-29T18:25:52.631Z,2.20
2019-01-29T18:28:22.974Z,2.10
2019-01-29T18:30:53.382Z,2.00
2019-01-29T18:33:23.775Z,2.00
2019-01-29T18:35:54.185Z,2.10
2019-01-29T18:38:24.526Z,2.10
2019-01-29T18:40:56.507Z,2.00
2019-01-29T18:43:26.901Z,2.00
2019-01-29T18:45:57.310Z,2.10
2019-01-29T18:48:27.690Z,2.00
2019-01-29T18:50:58.072Z,2.10
2019-01-29T18:53:28.507Z,2.10
2019-01-29T18:56:01.301Z,2.00
2019-01-29T18:58:31.711Z,2.00
2019-01-29T19:01:02.163Z,1.90
2019-01-29T19:03:32.556Z,1.90
2019-01-29T19:06:02.913Z,1.90
2019-01-29T19:08:33.300Z,2.00
2019-01-29T19:11:03.781Z,1.90
2019-01-29T19:13:34.179Z,1.90
2019-01-29T19:16:04.630Z,1.60
2019-01-29T19:18:35.087Z,1.80
2019-01-29T19:21:05.602Z,1.80
2019-01-29T19:23:35.999Z,1.80
2019-01-29T19:26:06.368Z,1.70
2019-01-29T19:28:36.743Z,1.70
2019-01-29T19:31:07.117Z,1.60
2019-01-29T19:33:37.506Z,1.60
2019-01-29T19:36:07.903Z,1.60
2019-01-29T19:38:38.342Z,1.60
2019-01-29T19:41:08.713Z,1.60
2019-01-29T19:43:39.099Z,1.60
2019-01-29T19:46:09.531Z,1.70
2019-01-29T19:48:39.921Z,1.70
2019-01-29T19:51:10.297Z,1.60
2019-01-29T19:53:40.686Z,1.50
2019-01-29T19:56:11.085Z,1.60
2019-01-29T19:58:41.473Z,1.50
2019-01-29T20:01:11.875Z,1.50
2019-01-29T20:03:42.559Z,1.50
2019-01-29T20:06:12.933Z,1.50
2019-01-29T20:08:43.351Z,1.50
2019-01-29T20:11:13.885Z,1.40
2019-01-29T20:13:44.372Z,1.20
2019-01-29T20:16:14.754Z,1.40
2019-01-29T20:18:45.156Z,1.40
2019-01-29T20:21:15.577Z,1.40
2019-01-29T20:23:46.037Z,1.40
2019-01-29T20:26:16.455Z,1.30
2019-01-29T20:28:46.845Z,1.40
2019-01-29T20:31:17.211Z,1.20
2019-01-29T20:33:47.589Z,1.30
2019-01-29T20:36:17.987Z,1.30
2019-01-29T20:38:48.407Z,1.30
2019-01-29T20:41:19.430Z,1.40
2019-01-29T20:43:49.835Z,1.40
2019-01-29T20:46:20.253Z,1.40
2019-01-29T20:48:50.668Z,1.40
2019-01-29T20:51:21.042Z,1.40
2019-01-29T20:53:51.490Z,1.30
2019-01-29T20:56:21.893Z,1.30
2019-01-29T20:58:53.174Z,1.30
2019-01-29T21:01:23.565Z,1.20
2019-01-29T21:03:53.941Z,1.30
2019-01-29T21:06:24.338Z,1.30
2019-01-29T21:08:54.752Z,1.20
2019-01-29T21:11:25.209Z,1.00
2019-01-29T21:13:55.567Z,1.20
2019-01-29T21:16:25.953Z,1.20
2019-01-29T21:18:56.317Z,1.10
2019-01-29T21:21:26.775Z,1.20
2019-01-29T21:23:57.140Z,0.80
2019-01-29T21:26:27.548Z,1.00
2019-01-29T21:29:03.079Z,1.00
2019-01-29T21:31:30.018Z,1.00
2019-01-29T21:34:00.410Z,1.00
2019-01-29T21:36:30.786Z,0.90
2019-01-29T21:39:01.145Z,1.00
2019-01-29T21:41:31.528Z,1.00
2019-01-29T21:44:01.877Z,1.00
2019-01-29T21:46:32.251Z,1.10
2019-01-29T21:49:02.637Z,1.10
2019-01-29T21:51:32.998Z,1.10
2019-01-29T21:54:03.430Z,0.90
2019-01-29T21:56:33.874Z,0.90
2019-01-29T21:59:13.166Z,1.10
2019-01-29T22:01:36.402Z,1.10
2019-01-29T22:04:06.778Z,1.10
2019-01-29T22:06:37.165Z,1.10
2019-01-29T22:09:09.541Z,1.10
2019-01-29T22:11:39.966Z,1.00
2019-01-29T22:14:10.354Z,0.90
2019-01-29T22:16:41.610Z,0.80
2019-01-29T22:19:12.017Z,0.90
2019-01-29T22:21:42.441Z,1.00
2019-01-29T22:24:12.980Z,0.90
2019-01-29T22:26:43.332Z,1.00
2019-01-29T22:29:22.929Z,0.80
2019-01-29T22:31:45.874Z,0.60
2019-01-29T22:34:16.313Z,0.80
2019-01-29T22:36:46.766Z,0.80
2019-01-29T22:39:17.264Z,0.80
2019-01-29T22:41:47.662Z,0.80
2019-01-29T22:44:18.076Z,0.70
2019-01-29T22:46:48.555Z,0.70
2019-01-29T22:49:18.974Z,0.60
2019-01-29T22:51:49.393Z,0.60
2019-01-29T22:54:19.817Z,0.60
2019-01-29T22:56:50.236Z,0.70
2019-01-29T22:59:20.719Z,0.60
2019-01-29T23:01:51.125Z,0.80
2019-01-29T23:04:29.563Z,0.80
2019-01-29T23:07:29.363Z,0.80
2019-01-29T23:09:59.871Z,0.90
2019-01-29T23:12:30.228Z,0.90
2019-01-29T23:15:00.644Z,1.00
2019-01-29T23:17:31.047Z,1.00
2019-01-29T23:20:01.430Z,1.00
2019-01-29T23:22:31.818Z,1.00
2019-01-29T23:25:02.235Z,1.00
2019-01-29T23:27:32.590Z,0.90
2019-01-29T23:30:03.050Z,0.80
2019-01-29T23:32:33.498Z,0.70
2019-01-29T23:35:04.252Z,0.70
2019-01-29T23:37:34.611Z,0.80
2019-01-29T23:40:07.768Z,0.50
2019-01-29T23:42:38.191Z,0.60
2019-01-29T23:45:10.262Z,0.80
2019-01-29T23:47:40.611Z,0.60
2019-01-29T23:50:12.481Z,0.50
2019-01-29T23:52:42.926Z,0.50
2019-01-29T23:55:13.440Z,0.60
2019-01-29T23:57:43.864Z,0.60
